フォルタレザ の空港の天気 - METARとTAF

フォルタレザ/ピント・マーティンズ国際空港 ( SBFZ / FOR ) - ブラジル セアラー州フォルタレザ
飛行場実況気象(Metar)
観測時間12/14 03:00 BRT (12/14 06:00 UTC)
風向・風速東 4m/s
視程10km以上
天気現象
全天の8割程度の雲 雲底高度 610m
気温27℃
湿度79%
気圧1012hPa
METARSBFZ 140600Z 09008KT 9999 BKN020 27/23 Q1012
過去の天気等 Google飛行場航空写真 Wunderground天気予報

過去48時間のMETAR

飛行場予報(TAF)
発表時間: 12/13 22:00 BRT (12/14 01:00 UTC)
予報対象時間: 14日3時 BRT ~ 15日3時 BRT
風向・風速東南東 6m/s
視程8000m
全天の4割程度の雲 雲底高度 670m
14日8時 BRT ~ 14日9時 BRT に徐々に
風向・風速東南東 9m/s
14日16時 BRT ~ 14日18時 BRT に徐々に
風向・風速東 7m/s
TAF SBFZ 140100Z 1406/1506 12012KT 8000 SCT022 TN26/1408Z TX31/1417Z
BECMG 1411/1412 12018KT
BECMG 1419/1421 08013KT RMK PCH